Time;durP1;ratioP1;P1;durP2;ratioP2;P2;SDS_P1;SDS_P2;PMS_P1;PMS_P2;Temp;Humidity;BMP_temperature;BMP_pressure;BME280_temperature;BME280_humidity;BME280_pressure;Samples;Min_cycle;Max_cycle;Signal;HPM_P1;HPM_P2
2022/09/11 13:45:02;;;;;;;5.43;1.40;;;21.10;99.90;;;;;;5140344;27;20489;-84
2022/09/11 13:47:30;;;;;;;5.85;1.75;;;21.40;99.90;;;;;;5098094;28;20119;-83
2022/09/11 13:50:08;;;;;;;3.28;1.20;;;21.50;99.80;;;;;;5077492;28;20047;-83
2022/09/11 13:52:35;;;;;;;3.47;1.52;;;21.50;99.50;;;;;;5087738;28;20044;-83
2022/09/11 13:55:25;;;;;;;6.40;1.30;;;21.60;99.10;;;;;;5077670;28;20784;-83
2022/09/11 13:57:54;;;;;;;2.92;1.20;;;21.60;99.20;;;;;;5088591;28;20128;-83
2022/09/11 14:00:49;;;;;;;6.32;1.48;;;21.60;99.00;;;;;;5094046;28;20050;-83
2022/09/11 14:03:26;;;;;;;3.47;1.25;;;21.70;99.10;;;;;;5104267;28;20039;-83
2022/09/11 14:06:03;;;;;;;4.60;1.30;;;21.60;99.20;;;;;;5102373;28;20047;-84
2022/09/11 14:08:35;;;;;;;4.35;1.25;;;21.60;99.50;;;;;;5114594;28;20487;-85
2022/09/11 14:11:14;;;;;;;2.70;1.20;;;21.70;99.50;;;;;;5100618;28;20458;-83
2022/09/11 14:13:52;;;;;;;3.00;1.20;;;21.70;99.00;;;;;;5107219;28;20043;-84
2022/09/11 14:16:30;;;;;;;3.20;1.10;;;21.70;98.80;;;;;;5108738;28;20046;-83
2022/09/11 14:19:12;;;;;;;4.63;1.40;;;21.60;99.00;;;;;;5111266;28;20043;-83
2022/09/11 14:21:40;;;;;;;3.95;1.45;;;21.60;99.10;;;;;;5095339;28;20509;-83
2022/09/11 14:24:31;;;;;;;4.07;1.70;;;21.50;99.00;;;;;;5107517;28;20039;-83
2022/09/11 14:26:58;;;;;;;2.78;1.20;;;21.40;98.80;;;;;;5091281;28;20495;-83
2022/09/11 14:29:32;;;;;;;3.83;1.33;;;21.30;99.00;;;;;;5106633;28;20498;-83
2022/09/11 14:32:47;;;;;;;3.85;1.38;;;21.20;99.20;;;;;;5107238;28;20119;-83
2022/09/11 14:35:13;;;;;;;5.68;1.50;;;21.10;99.70;;;;;;5092728;28;20371;-83
2022/09/11 14:37:44;;;;;;;4.10;1.30;;;21.00;99.90;;;;;;5110043;28;20092;-83
2022/09/11 14:40:14;;;;;;;4.50;1.38;;;21.00;99.90;;;;;;5106971;28;20717;-84
2022/09/11 14:42:41;;;;;;;4.30;1.35;;;20.90;99.90;;;;;;5082709;28;20069;-84
2022/09/11 14:45:16;;;;;;;2.92;1.33;;;20.80;99.90;;;;;;5076016;28;20075;-84
2022/09/11 14:47:43;;;;;;;3.42;1.35;;;20.70;99.90;;;;;;5105329;28;20067;-84
2022/09/11 14:50:11;;;;;;;4.78;1.50;;;20.60;99.90;;;;;;5060149;28;20425;-83
2022/09/11 14:52:38;;;;;;;3.83;1.48;;;20.50;99.90;;;;;;5077085;28;20048;-84
2022/09/11 14:55:06;;;;;;;3.58;1.40;;;20.50;99.90;;;;;;5077022;28;20044;-83
2022/09/11 14:57:33;;;;;;;2.85;1.30;;;20.40;99.90;;;;;;5076978;28;20586;-84
2022/09/11 14:59:59;;;;;;;4.22;1.50;;;20.40;99.90;;;;;;5094808;28;20387;-83
2022/09/11 15:02:27;;;;;;;3.25;1.40;;;20.40;99.90;;;;;;5062231;28;20067;-83
2022/09/11 15:04:54;;;;;;;5.00;1.63;;;20.30;99.90;;;;;;5078143;28;20176;-83
2022/09/11 15:07:22;;;;;;;4.10;1.38;;;20.30;99.90;;;;;;5073621;28;20040;-83
2022/09/11 15:09:48;;;;;;;4.47;1.60;;;20.30;99.90;;;;;;5090137;28;20499;-83
2022/09/11 15:12:15;;;;;;;3.67;1.45;;;20.30;99.90;;;;;;5076458;28;20052;-84
2022/09/11 15:14:41;;;;;;;3.33;1.45;;;20.30;99.90;;;;;;5098262;28;20068;-83
2022/09/11 15:17:10;;;;;;;4.75;1.55;;;20.30;99.90;;;;;;5061485;28;20047;-83
2022/09/11 15:19:36;;;;;;;5.47;1.60;;;20.30;99.90;;;;;;5083304;28;20373;-84
2022/09/11 15:22:03;;;;;;;5.15;1.67;;;20.30;99.90;;;;;;5056338;28;20071;-84
2022/09/11 15:24:30;;;;;;;3.33;1.35;;;20.30;99.90;;;;;;5078284;28;20402;-82
2022/09/11 15:26:56;;;;;;;3.17;1.42;;;20.30;99.90;;;;;;5071801;28;20054;-83
2022/09/11 15:29:24;;;;;;;3.25;1.27;;;20.30;99.90;;;;;;5063051;28;20093;-85
2022/09/11 15:31:53;;;;;;;3.38;1.33;;;20.30;99.90;;;;;;5097344;28;20498;-85
2022/09/11 15:34:20;;;;;;;2.22;1.25;;;20.30;99.90;;;;;;5072165;28;20086;-85
2022/09/11 15:36:47;;;;;;;5.50;1.20;;;20.40;99.90;;;;;;5065097;28;20044;-84
2022/09/11 15:39:16;;;;;;;3.00;1.38;;;20.40;99.90;;;;;;5053364;28;20126;-85
2022/09/11 15:41:41;;;;;;;5.20;1.30;;;20.40;99.90;;;;;;5086846;28;20054;-85
2022/09/11 15:44:19;;;;;;;3.42;1.20;;;20.40;99.90;;;;;;5077413;28;20044;-85
2022/09/11 15:46:50;;;;;;;2.83;1.15;;;20.40;99.90;;;;;;5089020;28;20544;-85
2022/09/11 15:49:17;;;;;;;4.03;1.20;;;20.50;99.90;;;;;;5106549;28;20043;-85
2022/09/11 15:51:43;;;;;;;5.63;1.63;;;20.50;99.90;;;;;;5118806;28;20043;-89
2022/09/11 15:54:09;;;;;;;3.72;1.23;;;20.70;99.90;;;;;;5101685;28;20039;-84
2022/09/11 15:56:36;;;;;;;3.08;1.33;;;20.80;99.90;;;;;;5100998;28;20082;-84
2022/09/11 15:59:02;;;;;;;3.25;1.60;;;20.90;99.90;;;;;;5082267;28;20084;-84
2022/09/11 16:01:33;;;;;;;11.10;8.80;;;21.00;99.90;;;;;;5085835;28;20054;-84
2022/09/11 16:04:02;;;;;;;5.20;4.22;;;21.10;99.90;;;;;;5079789;28;20031;-85
2022/09/11 16:06:33;;;;;;;3.95;1.88;;;21.10;99.90;;;;;;5078565;28;20050;-85
2022/09/11 16:09:05;;;;;;;6.28;2.05;;;21.10;99.90;;;;;;5087088;28;20047;-85
2022/09/11 16:11:31;;;;;;;4.43;1.58;;;21.20;99.90;;;;;;5097350;28;20055;-85
2022/09/11 16:13:58;;;;;;;3.95;1.70;;;21.30;99.90;;;;;;5063049;28;20043;-85
2022/09/11 16:16:25;;;;;;;5.70;2.90;;;21.40;99.90;;;;;;5079368;28;20046;-84
2022/09/11 16:18:57;;;;;;;7.00;4.07;;;21.50;99.90;;;;;;5077835;28;20044;-85
2022/09/11 16:21:23;;;;;;;7.40;5.05;;;21.50;99.90;;;;;;5063510;28;20047;-85
2022/09/11 16:23:49;;;;;;;5.35;2.35;;;21.60;99.90;;;;;;5072758;28;20082;-84
2022/09/11 16:26:18;;;;;;;5.03;2.00;;;21.70;99.90;;;;;;5062124;28;20035;-85
2022/09/11 16:28:45;;;;;;;5.35;1.80;;;21.80;99.90;;;;;;5075731;28;20058;-84
2022/09/11 16:31:12;;;;;;;2.28;1.27;;;21.70;99.90;;;;;;5087399;28;20117;-84
2022/09/11 16:33:42;;;;;;;3.78;1.30;;;21.70;99.90;;;;;;5062886;28;20101;-84
2022/09/11 16:36:12;;;;;;;3.83;1.50;;;21.60;99.90;;;;;;5085709;28;20447;-84
2022/09/11 16:38:39;;;;;;;3.42;1.20;;;21.50;99.90;;;;;;5077760;28;20483;-84
2022/09/11 16:41:11;;;;;;;3.25;1.15;;;21.40;99.90;;;;;;5076166;28;20579;-85
2022/09/11 16:43:39;;;;;;;3.83;1.23;;;21.30;99.90;;;;;;5077321;28;20131;-84
2022/09/11 16:46:05;;;;;;;3.58;1.30;;;21.20;99.90;;;;;;5085750;28;20047;-84
2022/09/11 16:48:32;;;;;;;2.05;1.02;;;21.10;99.90;;;;;;5062943;28;20067;-84
2022/09/11 16:50:59;;;;;;;3.50;1.30;;;21.10;99.90;;;;;;5086167;28;20070;-84
2022/09/11 16:53:28;;;;;;;4.00;1.30;;;21.10;99.90;;;;;;5086190;28;20043;-84
2022/09/11 16:55:55;;;;;;;4.15;1.40;;;21.00;99.90;;;;;;5077090;28;20105;-85
2022/09/11 16:58:21;;;;;;;3.53;1.80;;;20.90;99.90;;;;;;5054975;28;20048;-86
2022/09/11 17:00:48;;;;;;;3.65;1.50;;;20.90;99.90;;;;;;5065252;28;20055;-85
2022/09/11 17:03:14;;;;;;;4.85;1.48;;;20.80;99.90;;;;;;5095083;28;20040;-84
2022/09/11 17:05:48;;;;;;;3.80;1.60;;;20.70;99.90;;;;;;5078817;28;20055;-84
2022/09/11 17:08:13;;;;;;;4.05;1.60;;;20.60;99.90;;;;;;5095747;28;20043;-85
2022/09/11 17:10:47;;;;;;;4.53;1.40;;;20.50;99.90;;;;;;5061477;28;20039;-84
2022/09/11 17:13:14;;;;;;;6.18;1.40;;;20.40;99.90;;;;;;5071187;28;20048;-84
2022/09/11 17:15:41;;;;;;;6.03;1.92;;;20.30;99.90;;;;;;5071953;28;20153;-85
2022/09/11 17:18:11;;;;;;;2.95;1.38;;;20.30;99.90;;;;;;5104672;28;20097;-84
2022/09/11 17:20:37;;;;;;;5.22;1.50;;;20.20;99.90;;;;;;5094786;28;20483;-84
2022/09/11 17:23:05;;;;;;;5.50;1.58;;;20.10;99.90;;;;;;5077776;28;20047;-84
2022/09/11 17:25:31;;;;;;;4.55;1.52;;;20.10;99.90;;;;;;5067869;28;20090;-85
2022/09/11 17:27:58;;;;;;;5.25;1.80;;;20.00;99.90;;;;;;5101707;28;20560;-84
2022/09/11 17:30:23;;;;;;;2.95;1.50;;;19.90;99.90;;;;;;5084462;28;20047;-85
2022/09/11 17:32:49;;;;;;;4.15;1.60;;;19.80;99.90;;;;;;5078939;28;20442;-84
2022/09/11 17:35:16;;;;;;;6.32;1.90;;;19.80;99.90;;;;;;5078530;28;20046;-84
2022/09/11 17:37:42;;;;;;;4.70;1.80;;;19.70;99.90;;;;;;5059107;28;20122;-86
2022/09/11 17:40:08;;;;;;;4.70;1.70;;;19.60;99.90;;;;;;5061712;28;20459;-85
2022/09/11 17:42:36;;;;;;;3.00;1.50;;;19.60;99.90;;;;;;5060504;28;20043;-84
2022/09/11 17:45:02;;;;;;;5.45;1.65;;;19.50;99.90;;;;;;5063763;28;20040;-85
2022/09/11 17:47:31;;;;;;;2.78;1.65;;;19.40;99.90;;;;;;5068254;28;20062;-85
2022/09/11 17:50:00;;;;;;;9.50;2.00;;;19.40;99.90;;;;;;5098813;28;20123;-84
2022/09/11 17:52:26;;;;;;;3.45;1.70;;;19.30;99.90;;;;;;5094443;28;20044;-84
2022/09/11 17:54:52;;;;;;;6.30;2.28;;;19.20;99.90;;;;;;5045260;28;20142;-84
2022/09/11 17:57:18;;;;;;;4.75;2.10;;;19.10;99.90;;;;;;5093971;28;20123;-84
2022/09/11 17:59:45;;;;;;;4.60;2.35;;;19.10;99.90;;;;;;5077004;28;20039;-84
2022/09/11 18:02:13;;;;;;;6.47;2.60;;;19.00;99.90;;;;;;5069895;28;20046;-84
2022/09/11 18:04:39;;;;;;;4.57;1.90;;;19.00;99.90;;;;;;5065773;28;20040;-83
2022/09/11 18:07:05;;;;;;;5.90;2.05;;;18.90;99.90;;;;;;5076657;28;20447;-83
2022/09/11 18:09:33;;;;;;;7.25;1.95;;;18.80;99.90;;;;;;5059588;28;20036;-84
2022/09/11 18:11:58;;;;;;;6.65;1.83;;;18.80;99.90;;;;;;5066331;28;20116;-85
2022/09/11 18:14:27;;;;;;;6.50;1.90;;;18.80;99.90;;;;;;5085113;28;20039;-84
2022/09/11 18:16:52;;;;;;;4.50;1.80;;;18.70;99.90;;;;;;5104251;28;20039;-84
2022/09/11 18:19:21;;;;;;;3.63;1.70;;;18.60;99.90;;;;;;5047886;28;20503;-84
2022/09/11 18:21:48;;;;;;;5.60;1.95;;;18.60;99.90;;;;;;5087555;28;20044;-86
2022/09/11 18:24:18;;;;;;;4.13;1.73;;;18.60;99.90;;;;;;5099731;28;20046;-85
2022/09/11 18:26:45;;;;;;;4.63;2.03;;;18.50;99.90;;;;;;5084156;28;20119;-85
2022/09/11 18:29:14;;;;;;;5.72;2.10;;;18.50;99.90;;;;;;5081026;28;20048;-85
2022/09/11 18:31:46;;;;;;;6.13;2.38;;;18.40;99.90;;;;;;5102091;28;20110;-86
2022/09/11 18:34:14;;;;;;;7.25;2.20;;;18.40;99.90;;;;;;5102753;28;20077;-86
2022/09/11 18:36:43;;;;;;;4.93;2.17;;;18.40;99.90;;;;;;5065612;28;20067;-84
2022/09/11 18:39:14;;;;;;;5.50;2.05;;;18.30;99.90;;;;;;5062934;28;20055;-85
2022/09/11 18:41:40;;;;;;;3.70;2.00;;;18.30;99.90;;;;;;5085389;28;20096;-84
2022/09/11 18:44:09;;;;;;;3.83;1.83;;;18.20;99.90;;;;;;5063560;28;20492;-84
2022/09/11 18:46:38;;;;;;;4.07;1.73;;;18.10;99.90;;;;;;5039656;28;20557;-84
2022/09/11 18:49:05;;;;;;;5.68;1.80;;;18.10;99.90;;;;;;5057833;28;20060;-84
2022/09/11 18:51:31;;;;;;;3.03;1.67;;;18.00;99.90;;;;;;5040903;28;20400;-85
2022/09/11 18:53:56;;;;;;;3.92;1.70;;;18.00;99.90;;;;;;5057076;28;20041;-84
2022/09/11 18:56:24;;;;;;;3.38;2.03;;;17.90;99.90;;;;;;5057373;28;20036;-84
2022/09/11 18:58:51;;;;;;;3.30;2.10;;;17.90;99.90;;;;;;5054887;28;20397;-84
2022/09/11 19:01:24;;;;;;;3.80;2.10;;;17.80;99.90;;;;;;5051295;28;20361;-84
2022/09/11 19:03:52;;;;;;;6.60;2.20;;;17.80;99.90;;;;;;5055556;28;20132;-84
2022/09/11 19:06:24;;;;;;;5.22;2.10;;;17.70;99.90;;;;;;5061220;28;20041;-83
2022/09/11 19:08:54;;;;;;;4.00;1.90;;;17.70;99.90;;;;;;5073795;28;20052;-85
2022/09/11 19:11:26;;;;;;;4.38;2.00;;;17.60;99.90;;;;;;5040469;28;20049;-84
2022/09/11 19:13:55;;;;;;;6.80;2.70;;;17.60;99.90;;;;;;5055442;28;20044;-84
2022/09/11 19:16:21;;;;;;;4.25;2.10;;;17.50;99.90;;;;;;5048917;28;20121;-84
2022/09/11 19:18:47;;;;;;;5.85;2.10;;;17.40;99.90;;;;;;5043358;28;20060;-84
2022/09/11 19:21:16;;;;;;;6.00;2.13;;;17.40;99.90;;;;;;5045049;28;20044;-84
2022/09/11 19:23:43;;;;;;;3.67;2.30;;;17.40;99.90;;;;;;5073041;28;20048;-84
2022/09/11 19:26:20;;;;;;;3.75;2.40;;;17.40;99.90;;;;;;5057089;28;20040;-84
2022/09/11 19:28:48;;;;;;;5.03;3.10;;;17.30;99.90;;;;;;5063714;28;20044;-84
2022/09/11 19:31:15;;;;;;;3.97;2.60;;;17.10;99.90;;;;;;5072288;28;20076;-86
2022/09/11 19:33:43;;;;;;;6.38;2.58;;;17.20;99.90;;;;;;5064477;28;20044;-84
2022/09/11 19:36:18;;;;;;;4.63;2.60;;;17.20;99.90;;;;;;5058542;28;20052;-84
2022/09/11 19:38:46;;;;;;;3.78;2.50;;;17.20;99.90;;;;;;5088522;28;20040;-84
2022/09/11 19:41:14;;;;;;;5.07;2.80;;;17.10;99.90;;;;;;5069780;28;20048;-84
2022/09/11 19:43:41;;;;;;;5.88;2.88;;;17.10;99.90;;;;;;5076734;28;20062;-84
2022/09/11 19:46:11;;;;;;;3.75;2.95;;;17.00;99.90;;;;;;5084128;28;20048;-84
2022/09/11 19:48:37;;;;;;;5.72;2.80;;;17.00;99.90;;;;;;5094537;28;20052;-84
2022/09/11 19:51:08;;;;;;;4.82;2.83;;;17.00;99.90;;;;;;5073672;28;20044;-85
2022/09/11 19:53:34;;;;;;;4.60;2.78;;;16.90;99.90;;;;;;5073694;28;20047;-84
2022/09/11 19:56:00;;;;;;;5.78;2.70;;;16.90;99.90;;;;;;5073956;28;20052;-84
2022/09/11 19:58:28;;;;;;;8.25;3.08;;;16.80;99.90;;;;;;5059493;28;20193;-85
2022/09/11 20:01:04;;;;;;;6.05;2.83;;;16.80;99.90;;;;;;5075119;28;20063;-89
2022/09/11 20:03:33;;;;;;;4.00;2.92;;;16.80;99.90;;;;;;5058983;28;20028;-88
2022/09/11 20:06:01;;;;;;;3.92;2.45;;;16.80;99.90;;;;;;5073791;28;20055;-86
2022/09/11 20:08:29;;;;;;;6.00;3.20;;;16.70;99.90;;;;;;5075633;28;20051;-87
2022/09/11 20:10:54;;;;;;;5.10;3.28;;;16.70;99.90;;;;;;5073203;28;20048;-86
2022/09/11 20:13:20;;;;;;;4.28;3.05;;;16.60;99.90;;;;;;5091519;28;20452;-86
2022/09/11 20:15:46;;;;;;;6.82;3.35;;;16.60;99.90;;;;;;5089977;28;20124;-86
2022/09/11 20:18:13;;;;;;;4.07;3.10;;;16.60;99.90;;;;;;5074055;28;20122;-85
2022/09/11 20:20:39;;;;;;;4.88;3.30;;;16.50;99.90;;;;;;5074674;28;20050;-86
2022/09/11 20:23:05;;;;;;;4.60;3.40;;;16.50;99.90;;;;;;5089823;28;20032;-85
2022/09/11 20:25:31;;;;;;;7.75;4.70;;;16.50;99.90;;;;;;5090581;28;20048;-86
2022/09/11 20:28:00;;;;;;;6.18;4.63;;;16.40;99.90;;;;;;5074047;28;20067;-86
2022/09/11 20:30:29;;;;;;;6.80;5.00;;;16.30;99.90;;;;;;5091591;28;20040;-87
2022/09/11 20:32:54;;;;;;;6.43;4.05;;;16.30;99.90;;;;;;5074237;28;20044;-85
2022/09/11 20:35:20;;;;;;;6.50;4.65;;;16.20;99.90;;;;;;5073762;28;20051;-84
2022/09/11 20:37:46;;;;;;;5.15;4.55;;;16.20;99.90;;;;;;5038574;28;20041;-85
2022/09/11 20:40:11;;;;;;;7.07;4.07;;;16.20;99.90;;;;;;5054846;28;20086;-85
2022/09/11 20:42:38;;;;;;;8.27;4.07;;;16.10;99.90;;;;;;5051800;28;20044;-85
2022/09/11 20:45:05;;;;;;;4.25;3.53;;;16.00;99.90;;;;;;5076435;28;20626;-84
2022/09/11 20:47:30;;;;;;;5.68;4.07;;;16.00;99.90;;;;;;5071424;28;20040;-85
2022/09/11 20:49:56;;;;;;;5.07;4.10;;;15.90;99.90;;;;;;5075105;28;20047;-85
2022/09/11 20:52:22;;;;;;;4.30;3.88;;;15.80;99.90;;;;;;5066568;28;20600;-84
2022/09/11 20:54:47;;;;;;;5.68;3.88;;;15.80;99.90;;;;;;5065919;28;20387;-85
2022/09/11 20:57:16;;;;;;;5.65;4.03;;;15.70;99.90;;;;;;5080744;28;20810;-85
2022/09/11 20:59:42;;;;;;;7.35;4.03;;;15.70;99.90;;;;;;5075322;28;20039;-84
2022/09/11 21:02:11;;;;;;;7.07;3.90;;;15.70;99.90;;;;;;5052852;28;20043;-83
2022/09/11 21:04:38;;;;;;;6.20;4.10;;;15.70;99.90;;;;;;5075511;28;20044;-84
2022/09/11 21:07:03;;;;;;;5.80;4.22;;;15.70;99.90;;;;;;5092523;28;20042;-84
2022/09/11 21:09:29;;;;;;;5.28;4.00;;;15.60;99.90;;;;;;5072035;28;20051;-84
2022/09/11 21:11:55;;;;;;;6.07;4.20;;;15.50;99.90;;;;;;5076708;28;20067;-84
2022/09/11 21:14:21;;;;;;;6.10;4.22;;;15.50;99.90;;;;;;5073339;28;20035;-84
2022/09/11 21:16:47;;;;;;;6.53;4.25;;;15.50;99.90;;;;;;5078107;28;20047;-85
2022/09/11 21:19:13;;;;;;;7.90;5.22;;;15.50;99.90;;;;;;5070866;28;20036;-84
2022/09/11 21:21:42;;;;;;;5.82;4.88;;;15.50;99.90;;;;;;5076988;28;20047;-84
2022/09/11 21:24:11;;;;;;;7.00;5.07;;;15.40;99.90;;;;;;5070838;28;20036;-84
2022/09/11 21:26:37;;;;;;;6.35;4.57;;;15.50;99.90;;;;;;5098977;28;20038;-83
2022/09/11 21:29:05;;;;;;;5.88;4.85;;;15.50;99.90;;;;;;5084674;28;20450;-84
2022/09/11 21:31:32;;;;;;;5.65;4.80;;;15.40;99.90;;;;;;5081912;28;20047;-84
2022/09/11 21:33:58;;;;;;;7.40;4.30;;;15.40;99.90;;;;;;5062290;28;20056;-85
2022/09/11 21:36:24;;;;;;;5.93;4.75;;;15.40;99.90;;;;;;5077035;28;20441;-86
2022/09/11 21:38:53;;;;;;;7.32;5.72;;;15.30;99.90;;;;;;5076148;28;20516;-85
2022/09/11 21:41:21;;;;;;;7.53;5.97;;;15.30;99.90;;;;;;5074700;28;20044;-85
2022/09/11 21:43:51;;;;;;;9.52;6.25;;;15.30;99.90;;;;;;5061192;28;20463;-86
2022/09/11 21:46:18;;;;;;;8.23;6.63;;;15.30;99.90;;;;;;5051155;28;20049;-85
2022/09/11 21:48:43;;;;;;;10.35;6.75;;;15.30;99.90;;;;;;5051670;28;20043;-85
2022/09/11 21:51:15;;;;;;;7.78;6.30;;;15.20;99.90;;;;;;5052680;28;20040;-86
2022/09/11 21:53:43;;;;;;;8.15;6.10;;;15.20;99.90;;;;;;5069507;28;20101;-84
2022/09/11 21:56:23;;;;;;;6.95;6.13;;;15.20;99.90;;;;;;5053258;28;20037;-85
2022/09/11 21:58:50;;;;;;;8.95;6.43;;;15.30;99.90;;;;;;5059797;28;20091;-86
2022/09/11 22:01:17;;;;;;;7.03;6.30;;;15.20;99.90;;;;;;5034610;28;20373;-85
2022/09/11 22:03:43;;;;;;;7.18;6.47;;;15.20;99.90;;;;;;5050230;28;20029;-86
2022/09/11 22:06:09;;;;;;;8.63;6.60;;;15.20;99.90;;;;;;5035716;28;20044;-85
2022/09/11 22:08:39;;;;;;;7.00;6.30;;;15.20;99.90;;;;;;5050817;28;20049;-84
2022/09/11 22:11:06;;;;;;;7.35;6.45;;;15.20;99.90;;;;;;5056766;28;20044;-84
2022/09/11 22:13:34;;;;;;;6.97;5.88;;;15.20;99.90;;;;;;5041154;28;20101;-85
2022/09/11 22:16:04;;;;;;;7.20;6.32;;;15.20;99.90;;;;;;5054380;28;20071;-85
2022/09/11 22:18:30;;;;;;;9.02;6.03;;;15.20;99.90;;;;;;5057086;28;20051;-84
2022/09/11 22:20:59;;;;;;;8.23;6.78;;;15.10;99.90;;;;;;5030682;28;20430;-84
2022/09/11 22:23:25;;;;;;;6.75;5.70;;;15.20;99.90;;;;;;5040688;28;20040;-84
2022/09/11 22:26:23;;;;;;;7.13;6.15;;;15.10;99.90;;;;;;5057076;28;20040;-84
2022/09/11 22:28:50;;;;;;;8.40;6.28;;;15.10;99.90;;;;;;5052137;28;20053;-85
2022/09/11 22:31:19;;;;;;;7.55;5.70;;;15.10;99.90;;;;;;5056739;28;20461;-84
2022/09/11 22:33:44;;;;;;;7.43;5.90;;;15.10;99.90;;;;;;5069617;28;20123;-84
2022/09/11 22:36:16;;;;;;;7.32;5.55;;;15.10;99.90;;;;;;5037405;28;20853;-84
2022/09/11 22:38:42;;;;;;;7.18;6.47;;;15.10;99.90;;;;;;5056514;28;20409;-84
2022/09/11 22:41:08;;;;;;;6.97;6.28;;;15.10;99.90;;;;;;5055949;28;20036;-84
2022/09/11 22:43:34;;;;;;;8.57;5.85;;;15.00;99.90;;;;;;5055339;28;20118;-84
2022/09/11 22:46:00;;;;;;;6.72;5.68;;;15.10;99.90;;;;;;5056719;28;20052;-84
2022/09/11 22:48:26;;;;;;;7.18;6.18;;;15.00;99.90;;;;;;5056046;28;20044;-84
2022/09/11 22:50:53;;;;;;;7.00;6.25;;;15.00;99.90;;;;;;5054499;28;20743;-84
2022/09/11 22:53:19;;;;;;;7.40;6.60;;;15.00;99.90;;;;;;5039283;28;20049;-84
2022/09/11 22:55:47;;;;;;;7.47;6.40;;;15.00;99.90;;;;;;5035940;28;20056;-84
2022/09/11 22:58:13;;;;;;;6.88;6.18;;;15.00;99.90;;;;;;5054687;28;20127;-85
2022/09/11 23:00:40;;;;;;;7.25;6.55;;;15.00;99.90;;;;;;5039559;28;20123;-84
2022/09/11 23:03:05;;;;;;;7.22;6.40;;;15.00;99.90;;;;;;5055815;28;20055;-85
2022/09/11 23:08:15;;;;;;;13.05;8.15;;;14.90;99.90;;;;;;5070555;28;20079;-84
2022/09/11 23:10:42;;;;;;;9.13;7.03;;;14.90;99.90;;;;;;5055967;28;20076;-84
2022/09/11 23:13:08;;;;;;;10.02;7.43;;;14.90;99.90;;;;;;5071831;28;20091;-84
2022/09/11 23:15:34;;;;;;;8.88;7.40;;;14.90;99.90;;;;;;5075948;28;20063;-85
2022/09/11 23:18:00;;;;;;;9.40;6.57;;;14.80;99.90;;;;;;5062509;28;20056;-85
2022/09/11 23:20:28;;;;;;;11.20;6.72;;;14.80;99.90;;;;;;5080766;28;20055;-85
2022/09/11 23:22:55;;;;;;;8.65;6.63;;;14.80;99.90;;;;;;5092687;28;20044;-85
2022/09/11 23:25:24;;;;;;;10.30;7.47;;;14.70;99.90;;;;;;5073771;28;20040;-84
2022/09/11 23:27:52;;;;;;;9.45;7.90;;;14.70;99.90;;;;;;5063459;28;20128;-84
2022/09/11 23:30:18;;;;;;;9.57;7.15;;;14.70;99.90;;;;;;5083912;28;20068;-84
2022/09/11 23:32:44;;;;;;;9.55;7.78;;;14.60;99.90;;;;;;5071832;28;20445;-84
2022/09/11 23:35:10;;;;;;;11.25;8.35;;;14.70;99.90;;;;;;5041916;28;20178;-84
2022/09/11 23:37:35;;;;;;;10.23;9.10;;;14.60;99.90;;;;;;5065414;28;20163;-84
2022/09/11 23:40:03;;;;;;;9.52;8.25;;;14.60;99.90;;;;;;5042223;28;20052;-84
2022/09/11 23:42:29;;;;;;;9.50;7.60;;;14.60;99.90;;;;;;5068371;28;20468;-84
2022/09/11 23:44:55;;;;;;;9.20;7.50;;;14.60;99.90;;;;;;5059620;28;20068;-84
2022/09/11 23:47:20;;;;;;;12.60;8.80;;;14.60;99.90;;;;;;5037574;28;20373;-84
2022/09/11 23:49:46;;;;;;;10.27;9.15;;;14.60;99.90;;;;;;5023549;28;20058;-84
2022/09/11 23:52:13;;;;;;;8.45;7.60;;;14.50;99.90;;;;;;5056498;28;20149;-84
2022/09/11 23:54:38;;;;;;;9.00;8.10;;;14.50;99.90;;;;;;5053583;28;20488;-84
2022/09/11 23:57:05;;;;;;;9.45;8.45;;;14.50;99.90;;;;;;5044229;28;20058;-84
2022/09/11 23:59:31;;;;;;;11.93;9.10;;;14.50;99.90;;;;;;5046762;28;20095;-84
